createdAt,value
2019-03-01T00:00:55.406Z,19.02
2019-03-01T00:02:57.113Z,20.60
2019-03-01T00:05:34.825Z,18.07
2019-03-01T00:08:06.397Z,17.70
2019-03-01T00:10:22.810Z,19.17
2019-03-01T00:13:08.373Z,16.85
2019-03-01T00:15:52.353Z,17.80
2019-03-01T00:18:15.799Z,18.92
2019-03-01T00:20:56.531Z,17.55
2019-03-01T00:23:36.313Z,20.17
2019-03-01T00:25:49.837Z,18.98
2019-03-01T00:28:25.916Z,18.48
2019-03-01T00:31:14.652Z,16.23
2019-03-01T00:33:58.606Z,17.17
2019-03-01T00:36:41.244Z,16.27
2019-03-01T00:39:13.262Z,16.55
2019-03-01T00:42:18.604Z,16.15
2019-03-01T00:44:40.121Z,21.68
2019-03-01T00:46:41.820Z,31.93
2019-03-01T00:48:43.685Z,18.37
2019-03-01T00:50:45.384Z,18.42
2019-03-01T00:52:47.092Z,18.07
2019-03-01T00:54:48.853Z,17.30
2019-03-01T00:56:50.563Z,19.25
2019-03-01T00:58:52.373Z,18.15
2019-03-01T01:00:54.201Z,19.05
2019-03-01T01:02:56.011Z,18.42
2019-03-01T01:04:57.828Z,19.25
2019-03-01T01:06:59.561Z,16.90
2019-03-01T01:09:01.274Z,18.90
2019-03-01T01:11:03.208Z,20.72
2019-03-01T01:13:05.249Z,18.67
2019-03-01T01:15:07.578Z,18.67
2019-03-01T01:17:09.357Z,19.62
2019-03-01T01:19:11.179Z,20.80
2019-03-01T01:21:12.883Z,20.70
2019-03-01T01:23:14.597Z,20.85
2019-03-01T01:25:16.294Z,20.65
2019-03-01T01:27:17.989Z,20.88
2019-03-01T01:29:19.705Z,20.80
2019-03-01T01:31:21.429Z,23.40
2019-03-01T01:33:23.117Z,22.30
2019-03-01T01:35:29.221Z,22.17
2019-03-01T01:37:30.940Z,21.82
2019-03-01T01:39:32.650Z,21.20
2019-03-01T01:41:34.414Z,22.65
2019-03-01T01:43:36.146Z,22.13
2019-03-01T01:45:37.905Z,21.62
2019-03-01T01:47:39.609Z,39.48
2019-03-01T01:49:41.409Z,24.40
2019-03-01T01:51:43.112Z,24.00
2019-03-01T01:53:44.812Z,25.00
2019-03-01T01:55:46.520Z,24.02
2019-03-01T01:57:48.240Z,23.70
2019-03-01T01:59:49.933Z,22.30
2019-03-01T02:01:51.754Z,24.23
2019-03-01T02:03:53.452Z,25.10
2019-03-01T02:05:55.444Z,22.73
2019-03-01T02:07:57.388Z,23.83
2019-03-01T02:09:59.095Z,24.40
2019-03-01T02:12:00.985Z,24.20
2019-03-01T02:14:02.788Z,23.92
2019-03-01T02:16:04.477Z,23.27
2019-03-01T02:18:06.215Z,23.30
2019-03-01T02:20:08.269Z,23.80
2019-03-01T02:22:09.972Z,23.35
2019-03-01T02:24:12.056Z,26.10
2019-03-01T02:26:13.758Z,24.47
2019-03-01T02:28:15.565Z,24.15
2019-03-01T02:30:19.719Z,24.57
2019-03-01T02:32:28.435Z,27.40
2019-03-01T02:34:30.470Z,28.20
2019-03-01T02:36:32.162Z,25.68
2019-03-01T02:38:33.871Z,25.72
2019-03-01T02:40:35.712Z,25.77
2019-03-01T02:42:37.518Z,27.52
2019-03-01T02:44:39.322Z,26.77
2019-03-01T02:46:41.029Z,25.88
2019-03-01T02:48:42.747Z,24.10
2019-03-01T02:50:44.433Z,28.23
2019-03-01T02:52:46.254Z,26.37
2019-03-01T02:54:47.973Z,25.43
2019-03-01T02:56:49.774Z,24.95
2019-03-01T02:58:51.493Z,25.77
2019-03-01T03:00:53.266Z,25.35
2019-03-01T03:02:55.177Z,26.80
2019-03-01T03:04:56.888Z,26.73
2019-03-01T03:07:04.732Z,27.42
2019-03-01T03:09:07.066Z,27.85
2019-03-01T03:11:08.847Z,29.02
2019-03-01T03:13:10.544Z,27.50
2019-03-01T03:15:13.290Z,26.27
2019-03-01T03:17:15.099Z,27.65
2019-03-01T03:19:16.889Z,27.80
2019-03-01T03:21:18.588Z,25.97
2019-03-01T03:23:20.291Z,28.75
2019-03-01T03:25:22.403Z,26.73
2019-03-01T03:27:24.097Z,27.02
2019-03-01T03:29:25.838Z,27.05
2019-03-01T03:31:27.739Z,25.12
2019-03-01T03:33:29.806Z,26.07
2019-03-01T03:35:31.607Z,28.52
2019-03-01T03:37:33.334Z,26.68
2019-03-01T03:39:35.044Z,29.10
2019-03-01T03:41:37.033Z,27.00
2019-03-01T03:43:38.750Z,25.43
2019-03-01T03:45:40.557Z,26.15
2019-03-01T03:47:42.615Z,27.87
2019-03-01T03:49:44.369Z,27.45
2019-03-01T03:51:46.084Z,28.17
2019-03-01T03:53:47.770Z,24.77
2019-03-01T03:55:49.728Z,23.90
2019-03-01T03:57:51.623Z,24.52
2019-03-01T03:59:53.310Z,22.95
2019-03-01T04:01:55.031Z,24.07
2019-03-01T04:03:56.929Z,24.72
2019-03-01T04:05:58.822Z,23.62
2019-03-01T04:08:00.716Z,23.87
2019-03-01T04:10:02.953Z,24.50
2019-03-01T04:12:04.956Z,28.83
2019-03-01T04:14:06.664Z,25.45
2019-03-01T04:16:08.562Z,23.30
2019-03-01T04:18:10.670Z,23.80
2019-03-01T04:20:14.381Z,24.20
2019-03-01T04:22:16.078Z,23.98
2019-03-01T04:24:18.003Z,23.40
2019-03-01T04:26:19.821Z,22.90
2019-03-01T04:28:21.805Z,23.42
2019-03-01T04:30:23.664Z,21.33
2019-03-01T04:32:25.717Z,25.12
2019-03-01T04:34:27.426Z,25.90
2019-03-01T04:36:29.129Z,38.55
2019-03-01T04:38:30.837Z,36.53
2019-03-01T04:40:32.534Z,26.02
2019-03-01T04:42:34.233Z,19.17
2019-03-01T04:44:36.232Z,21.07
2019-03-01T04:46:37.926Z,20.72
2019-03-01T04:48:39.617Z,20.05
2019-03-01T04:50:41.314Z,20.43
2019-03-01T04:52:43.021Z,18.90
2019-03-01T04:54:44.921Z,18.62
2019-03-01T04:56:46.621Z,19.55
2019-03-01T04:58:48.329Z,19.62
2019-03-01T05:00:50.031Z,19.48
2019-03-01T05:02:52.171Z,25.80
2019-03-01T05:04:53.874Z,170.82
2019-03-01T05:06:55.829Z,40.70
2019-03-01T05:08:57.530Z,24.30
2019-03-01T05:10:59.228Z,17.17
2019-03-01T05:13:01.091Z,16.12
2019-03-01T05:15:03.804Z,15.83
2019-03-01T05:17:05.533Z,16.75
2019-03-01T05:19:07.237Z,14.98
2019-03-01T05:21:08.972Z,14.75
2019-03-01T05:23:10.685Z,13.85
2019-03-01T05:25:12.533Z,14.20
2019-03-01T05:27:14.272Z,14.53
2019-03-01T05:29:15.993Z,14.30
2019-03-01T05:31:17.800Z,14.55
2019-03-01T05:33:19.600Z,14.05
2019-03-01T05:35:21.321Z,14.87
2019-03-01T05:37:23.050Z,14.40
2019-03-01T05:39:24.810Z,14.33
2019-03-01T05:41:26.857Z,13.38
2019-03-01T05:43:28.584Z,14.20
2019-03-01T05:45:30.393Z,14.60
2019-03-01T05:47:32.318Z,14.07
2019-03-01T05:49:34.041Z,13.32
2019-03-01T05:51:35.729Z,14.40
2019-03-01T05:53:37.451Z,14.00
2019-03-01T05:55:39.157Z,13.90
2019-03-01T05:58:17.990Z,14.60
2019-03-01T06:00:19.726Z,14.07
2019-03-01T06:03:03.181Z,12.98
2019-03-01T06:05:15.761Z,14.18
2019-03-01T06:07:42.180Z,12.03
2019-03-01T06:10:24.645Z,11.45
2019-03-01T06:12:57.923Z,11.18
2019-03-01T06:15:29.025Z,12.47
2019-03-01T06:18:31.056Z,12.00
2019-03-01T06:20:44.711Z,9.93
2019-03-01T06:23:09.720Z,10.00
2019-03-01T06:25:30.436Z,10.55
2019-03-01T06:28:29.648Z,9.33
2019-03-01T06:31:09.433Z,10.05
2019-03-01T06:33:51.881Z,8.90
2019-03-01T06:36:19.532Z,8.80
2019-03-01T06:39:04.161Z,9.90
2019-03-01T06:41:22.358Z,8.75
2019-03-01T06:43:59.318Z,9.25
2019-03-01T06:46:25.727Z,9.48
2019-03-01T06:48:37.285Z,8.53
2019-03-01T06:50:46.518Z,9.08
2019-03-01T06:52:48.265Z,9.73
2019-03-01T06:54:50.073Z,9.15
2019-03-01T06:56:51.882Z,9.38
2019-03-01T06:58:59.021Z,8.85
2019-03-01T07:01:12.977Z,8.53
2019-03-01T07:03:14.757Z,8.80
2019-03-01T07:05:16.484Z,8.25
2019-03-01T07:07:18.181Z,7.40
2019-03-01T07:09:19.894Z,7.95
2019-03-01T07:11:22.001Z,8.30
2019-03-01T07:13:23.771Z,7.70
2019-03-01T07:15:33.322Z,7.90
2019-03-01T07:17:35.034Z,6.10
2019-03-01T07:19:36.849Z,5.85
2019-03-01T07:21:38.591Z,5.20
2019-03-01T07:23:40.381Z,4.90
2019-03-01T07:25:42.560Z,4.40
2019-03-01T07:27:44.602Z,4.40
2019-03-01T07:29:46.332Z,3.87
2019-03-01T07:31:48.046Z,3.52
2019-03-01T07:33:49.837Z,3.77
2019-03-01T07:35:51.550Z,3.55
2019-03-01T07:37:53.285Z,3.90
2019-03-01T07:39:55.092Z,4.10
2019-03-01T07:41:57.001Z,4.05
2019-03-01T07:43:58.705Z,4.00
2019-03-01T07:46:00.508Z,3.95
2019-03-01T07:48:02.490Z,4.42
2019-03-01T07:50:04.752Z,4.30
2019-03-01T07:52:06.634Z,3.90
2019-03-01T07:54:08.422Z,4.30
2019-03-01T07:56:10.234Z,4.80
2019-03-01T07:58:11.921Z,4.40
2019-03-01T08:00:14.248Z,5.10
2019-03-01T08:02:16.801Z,4.47
2019-03-01T08:04:18.524Z,4.80
2019-03-01T08:06:20.232Z,4.45
2019-03-01T08:08:21.945Z,4.25
2019-03-01T08:10:23.734Z,4.20
2019-03-01T08:12:25.434Z,3.90
2019-03-01T08:14:28.052Z,4.22
2019-03-01T08:16:30.847Z,3.98
2019-03-01T08:18:52.223Z,3.92
2019-03-01T08:20:54.021Z,3.95
2019-03-01T08:22:56.768Z,3.77
2019-03-01T08:24:59.342Z,4.08
2019-03-01T08:27:20.713Z,3.80
2019-03-01T08:29:22.434Z,3.37
2019-03-01T08:31:24.317Z,3.72
2019-03-01T08:33:26.024Z,3.50
2019-03-01T08:35:28.619Z,3.22
2019-03-01T08:37:31.345Z,3.50
2019-03-01T08:39:33.078Z,3.42
2019-03-01T08:41:34.781Z,3.12
2019-03-01T08:43:36.686Z,4.62
2019-03-01T08:45:38.435Z,4.20
2019-03-01T08:47:40.152Z,4.35
2019-03-01T08:49:41.863Z,3.90
2019-03-01T08:51:44.025Z,5.25
2019-03-01T08:53:48.320Z,4.50
2019-03-01T08:55:49.547Z,4.03
2019-03-01T08:57:51.421Z,3.25
2019-03-01T08:59:53.321Z,3.42
2019-03-01T09:01:55.022Z,4.10
2019-03-01T09:04:00.007Z,4.00
2019-03-01T09:06:01.723Z,3.90
2019-03-01T09:08:03.533Z,4.10
2019-03-01T09:10:06.801Z,4.25
2019-03-01T09:12:08.529Z,3.30
2019-03-01T09:14:10.249Z,4.12
2019-03-01T09:16:11.954Z,7.00
2019-03-01T09:18:14.656Z,10.03
2019-03-01T09:20:17.275Z,16.73
2019-03-01T09:22:18.978Z,11.95
2019-03-01T09:24:20.761Z,9.35
2019-03-01T09:26:22.481Z,8.90
2019-03-01T09:28:24.305Z,6.20
2019-03-01T09:30:26.220Z,6.50
2019-03-01T09:32:30.459Z,8.90
2019-03-01T09:34:32.923Z,6.80
2019-03-01T09:36:46.370Z,5.60
2019-03-01T09:38:48.156Z,7.08
2019-03-01T09:40:49.986Z,6.87
2019-03-01T09:42:52.327Z,4.85
2019-03-01T09:44:54.519Z,3.85
2019-03-01T09:46:58.502Z,4.83
2019-03-01T09:48:59.832Z,3.42
2019-03-01T09:51:02.055Z,3.95
2019-03-01T09:53:03.998Z,3.62
2019-03-01T09:55:06.027Z,3.75
2019-03-01T09:57:07.752Z,3.87
2019-03-01T09:59:09.550Z,4.50
2019-03-01T10:01:16.045Z,4.33
2019-03-01T10:03:18.577Z,4.70
2019-03-01T10:05:20.288Z,4.87
2019-03-01T10:07:22.008Z,4.33
2019-03-01T10:09:23.741Z,4.97
2019-03-01T10:11:25.550Z,4.60
2019-03-01T10:13:27.411Z,4.03
2019-03-01T10:15:29.270Z,4.47
2019-03-01T10:17:31.099Z,4.70
2019-03-01T10:19:32.862Z,4.97
2019-03-01T10:21:34.681Z,4.62
2019-03-01T10:23:36.404Z,8.73
2019-03-01T10:25:38.116Z,11.68
2019-03-01T10:27:40.042Z,10.38
2019-03-01T10:29:41.881Z,10.50
2019-03-01T10:31:43.679Z,9.23
2019-03-01T10:33:45.404Z,9.55
2019-03-01T10:35:47.223Z,7.72
2019-03-01T10:37:49.220Z,41.90
2019-03-01T10:39:55.425Z,30.40
2019-03-01T10:41:54.675Z,9.03
2019-03-01T10:43:56.381Z,8.83
2019-03-01T10:45:58.128Z,8.50
2019-03-01T10:47:59.966Z,8.35
2019-03-01T10:50:01.757Z,8.35
2019-03-01T10:52:03.591Z,8.30
2019-03-01T10:54:05.401Z,8.47
2019-03-01T10:56:07.104Z,8.50
2019-03-01T10:58:08.860Z,9.10
2019-03-01T11:00:18.459Z,9.33
2019-03-01T11:02:20.189Z,8.95
2019-03-01T11:04:21.917Z,8.05
2019-03-01T11:06:23.738Z,8.33
2019-03-01T11:08:25.618Z,9.08
2019-03-01T11:10:29.679Z,8.33
2019-03-01T11:12:31.413Z,7.15
2019-03-01T11:14:33.149Z,8.98
2019-03-01T11:16:34.889Z,5.58
2019-03-01T11:18:36.604Z,5.45
2019-03-01T11:20:38.517Z,5.72
2019-03-01T11:22:40.333Z,6.08
2019-03-01T11:24:42.008Z,5.08
2019-03-01T11:26:43.738Z,5.30
2019-03-01T11:28:45.465Z,5.67
2019-03-01T11:30:47.175Z,5.53
2019-03-01T11:32:48.961Z,4.70
2019-03-01T11:34:51.066Z,5.00
2019-03-01T11:36:52.875Z,4.83
2019-03-01T11:38:54.613Z,5.20
2019-03-01T11:40:56.538Z,5.28
2019-03-01T11:42:58.640Z,6.35
2019-03-01T11:45:00.457Z,6.12
2019-03-01T11:47:02.206Z,5.58
2019-03-01T11:49:04.020Z,5.75
2019-03-01T11:51:05.818Z,5.78
2019-03-01T11:53:07.858Z,4.83
2019-03-01T11:55:09.797Z,5.07
2019-03-01T11:57:11.694Z,5.80
2019-03-01T11:59:13.405Z,5.07
2019-03-01T12:01:17.490Z,5.20
2019-03-01T12:03:18.946Z,5.10
2019-03-01T12:05:20.766Z,5.05
2019-03-01T12:07:22.478Z,4.20
2019-03-01T12:09:24.278Z,3.70
2019-03-01T12:11:25.985Z,4.20
2019-03-01T12:13:27.703Z,3.50
2019-03-01T12:15:29.503Z,4.00
2019-03-01T12:17:31.236Z,5.73
2019-03-01T12:19:32.944Z,5.90
2019-03-01T12:21:34.641Z,3.67
2019-03-01T12:23:36.329Z,3.67
2019-03-01T12:25:38.041Z,4.07
2019-03-01T12:27:39.744Z,3.47
2019-03-01T12:29:41.450Z,4.17
2019-03-01T12:31:43.189Z,4.97
2019-03-01T12:33:45.020Z,4.50
2019-03-01T12:35:46.866Z,4.10
2019-03-01T12:37:49.708Z,3.87
2019-03-01T12:39:51.421Z,4.10
2019-03-01T12:41:53.111Z,4.80
2019-03-01T12:43:54.834Z,3.90
2019-03-01T12:45:56.638Z,12.77
2019-03-01T12:47:58.352Z,13.50
2019-03-01T12:50:00.212Z,9.60
2019-03-01T12:52:02.192Z,3.93
2019-03-01T12:54:04.393Z,4.60
2019-03-01T12:56:06.385Z,4.20
2019-03-01T12:58:08.177Z,3.90
2019-03-01T13:00:18.625Z,4.50
2019-03-01T13:02:20.383Z,4.90
2019-03-01T13:04:22.149Z,5.70
2019-03-01T13:06:23.865Z,4.90
2019-03-01T13:08:26.367Z,6.27
2019-03-01T13:10:28.299Z,4.83
2019-03-01T13:12:30.028Z,7.97
2019-03-01T13:14:31.737Z,14.20
2019-03-01T13:16:33.665Z,6.53
2019-03-01T13:18:35.509Z,4.70
2019-03-01T13:20:38.153Z,3.80
2019-03-01T13:22:40.581Z,3.90
2019-03-01T13:24:42.293Z,3.57
2019-03-01T13:26:44.124Z,4.73
2019-03-01T13:28:47.040Z,4.43
2019-03-01T13:30:49.437Z,4.57
2019-03-01T13:32:51.284Z,4.43
2019-03-01T13:34:53.137Z,5.83
2019-03-01T13:36:55.094Z,3.67
2019-03-01T13:38:56.941Z,5.83
2019-03-01T13:40:58.844Z,3.73
2019-03-01T13:43:02.495Z,4.90
2019-03-01T13:45:04.693Z,4.60
2019-03-01T13:47:08.678Z,3.70
2019-03-01T13:49:10.125Z,4.77
2019-03-01T13:51:13.857Z,4.03
2019-03-01T13:53:15.457Z,4.20
2019-03-01T13:55:18.645Z,4.37
2019-03-01T13:57:21.141Z,4.43
2019-03-01T13:59:23.073Z,4.73
2019-03-01T14:01:27.100Z,4.50
2019-03-01T14:03:28.507Z,3.63
2019-03-01T14:05:30.338Z,3.55
2019-03-01T14:07:32.041Z,4.50
2019-03-01T14:09:34.466Z,4.30
2019-03-01T14:11:36.508Z,3.93
2019-03-01T14:13:38.239Z,4.57
2019-03-01T14:15:40.453Z,4.50
2019-03-01T14:17:42.425Z,4.70
2019-03-01T14:19:44.327Z,4.60
2019-03-01T14:21:46.077Z,4.70
2019-03-01T14:23:47.770Z,4.37
2019-03-01T14:25:49.490Z,4.72
2019-03-01T14:27:52.898Z,4.57
2019-03-01T14:29:54.845Z,5.00
2019-03-01T14:31:56.844Z,3.83
2019-03-01T14:33:58.709Z,4.85
2019-03-01T14:36:02.711Z,4.60
2019-03-01T14:38:04.440Z,4.43
2019-03-01T14:40:08.248Z,4.30
2019-03-01T14:42:10.942Z,5.10
2019-03-01T14:53:41.513Z,4.10
2019-03-01T14:55:46.444Z,3.80
2019-03-01T14:57:51.851Z,4.00
2019-03-01T15:00:14.046Z,4.70
2019-03-01T15:02:27.453Z,4.30
2019-03-01T15:04:29.731Z,3.37
2019-03-01T15:06:31.555Z,3.98
2019-03-01T15:08:33.486Z,4.77
2019-03-01T15:10:35.610Z,5.35
2019-03-01T15:12:39.448Z,3.87
2019-03-01T15:14:41.502Z,4.08
2019-03-01T15:16:44.389Z,4.10
2019-03-01T15:18:46.311Z,4.95
2019-03-01T15:20:48.071Z,4.20
2019-03-01T15:25:20.209Z,4.62
2019-03-01T15:27:22.049Z,4.20
2019-03-01T15:29:23.763Z,3.77
2019-03-01T15:31:25.570Z,4.33
2019-03-01T15:33:27.280Z,4.35
2019-03-01T15:35:29.117Z,4.03
2019-03-01T15:37:34.970Z,3.98
2019-03-01T15:39:35.729Z,3.62
2019-03-01T15:41:39.214Z,3.58
2019-03-01T15:43:41.181Z,3.80
2019-03-01T15:45:42.999Z,4.72
2019-03-01T15:47:44.809Z,4.40
2019-03-01T15:49:48.009Z,4.42
2019-03-01T15:51:50.460Z,4.42
2019-03-01T15:53:52.215Z,4.78
2019-03-01T15:55:53.945Z,3.65
2019-03-01T15:57:56.416Z,3.92
2019-03-01T15:59:59.128Z,4.30
2019-03-01T16:02:00.854Z,4.30
2019-03-01T16:04:02.562Z,4.35
2019-03-01T16:06:04.313Z,4.00
2019-03-01T16:08:08.324Z,4.15
2019-03-01T16:10:09.892Z,3.70
2019-03-01T16:12:11.595Z,4.05
2019-03-01T16:14:13.421Z,3.72
2019-03-01T16:16:15.121Z,4.22
2019-03-01T16:18:16.817Z,3.95
2019-03-01T16:20:19.045Z,4.30
2019-03-01T16:22:20.791Z,5.78
2019-03-01T16:24:22.513Z,4.70
2019-03-01T16:26:29.857Z,4.22
2019-03-01T16:28:31.111Z,5.10
2019-03-01T16:30:31.885Z,3.87
2019-03-01T16:32:33.629Z,5.70
2019-03-01T16:34:37.658Z,4.55
2019-03-01T16:36:45.995Z,4.47
2019-03-01T16:38:48.904Z,4.65
2019-03-01T16:40:50.857Z,5.00
2019-03-01T16:42:54.289Z,4.80
2019-03-01T16:44:56.443Z,4.62
2019-03-01T16:46:58.138Z,4.25
2019-03-01T16:48:59.867Z,5.33
2019-03-01T16:51:01.622Z,4.67
2019-03-01T16:53:04.767Z,5.33
2019-03-01T16:55:10.125Z,4.50
2019-03-01T16:57:14.953Z,5.00
2019-03-01T16:59:15.593Z,6.10
2019-03-01T17:01:17.444Z,4.10
2019-03-01T17:03:19.249Z,4.60
2019-03-01T17:05:21.036Z,5.08
2019-03-01T17:07:25.083Z,4.47
2019-03-01T17:09:26.450Z,4.22
2019-03-01T17:11:28.173Z,4.08
2019-03-01T17:13:29.877Z,4.60
2019-03-01T17:15:31.807Z,4.47
2019-03-01T17:17:36.905Z,5.10
2019-03-01T17:19:37.143Z,4.87
2019-03-01T17:21:38.858Z,4.72
2019-03-01T17:23:40.777Z,5.75
2019-03-01T17:25:42.765Z,5.45
2019-03-01T17:27:44.693Z,4.50
2019-03-01T17:29:46.529Z,4.97
2019-03-01T17:31:48.313Z,5.28
2019-03-01T17:33:50.107Z,5.35
2019-03-01T17:35:51.953Z,4.10
2019-03-01T17:37:53.763Z,6.22
2019-03-01T17:39:56.515Z,5.90
2019-03-01T17:41:59.254Z,5.22
2019-03-01T17:44:00.986Z,5.37
2019-03-01T17:46:02.682Z,4.62
2019-03-01T17:48:04.379Z,4.75
2019-03-01T17:50:08.724Z,4.75
2019-03-01T17:52:09.956Z,5.37
2019-03-01T17:54:11.668Z,4.65
2019-03-01T17:56:13.364Z,5.33
2019-03-01T17:58:15.065Z,4.90
2019-03-01T18:00:21.627Z,5.30
2019-03-01T18:02:24.233Z,14.93
2019-03-01T18:04:25.949Z,17.20
2019-03-01T18:06:27.881Z,10.98
2019-03-01T18:08:30.309Z,7.00
2019-03-01T18:10:33.037Z,7.05
2019-03-01T18:12:34.881Z,5.05
2019-03-01T18:14:37.072Z,6.08
2019-03-01T18:16:39.382Z,5.80
2019-03-01T18:18:42.539Z,4.83
2019-03-01T18:20:44.414Z,5.62
2019-03-01T18:22:46.236Z,5.47
2019-03-01T18:24:49.951Z,5.42
2019-03-01T18:26:51.652Z,6.15
2019-03-01T18:28:53.616Z,5.37
2019-03-01T18:30:56.298Z,5.00
2019-03-01T18:32:58.129Z,4.75
2019-03-01T18:35:02.022Z,6.92
2019-03-01T18:37:17.869Z,5.10
2019-03-01T18:39:10.838Z,5.90
2019-03-01T18:41:12.697Z,6.10
2019-03-01T18:43:14.465Z,5.80
2019-03-01T18:45:16.408Z,5.37
2019-03-01T18:47:18.165Z,6.75
2019-03-01T18:49:20.781Z,5.42
2019-03-01T18:51:22.582Z,5.50
2019-03-01T18:53:24.972Z,6.80
2019-03-01T18:55:27.890Z,4.95
2019-03-01T18:57:29.952Z,4.50
2019-03-01T18:59:31.781Z,5.33
2019-03-01T19:01:33.481Z,4.72
2019-03-01T19:03:36.538Z,4.95
2019-03-01T19:05:40.052Z,6.05
2019-03-01T19:07:42.992Z,5.10
2019-03-01T19:09:44.761Z,5.83
2019-03-01T19:11:46.509Z,5.25
2019-03-01T19:13:48.220Z,5.35
2019-03-01T19:15:54.408Z,5.37
2019-03-01T19:17:53.699Z,9.25
2019-03-01T19:19:55.398Z,11.60
2019-03-01T19:21:57.140Z,6.05
2019-03-01T19:23:58.840Z,5.00
2019-03-01T19:26:04.132Z,4.87
2019-03-01T19:28:05.963Z,5.70
2019-03-01T19:30:10.538Z,5.45
2019-03-01T19:32:12.625Z,5.60
2019-03-01T19:34:16.910Z,5.40
2019-03-01T19:36:17.951Z,5.05
2019-03-01T19:38:21.720Z,4.60
2019-03-01T19:40:23.645Z,6.00
2019-03-01T19:42:25.473Z,16.37
2019-03-01T19:44:28.918Z,8.00
2019-03-01T19:46:30.821Z,13.72
2019-03-01T19:48:34.484Z,7.28
2019-03-01T19:50:36.310Z,5.10
2019-03-01T19:52:38.202Z,4.80
2019-03-01T19:54:39.997Z,5.92
2019-03-01T19:56:41.697Z,6.08
2019-03-01T19:58:44.128Z,5.50
2019-03-01T20:00:47.241Z,5.45
2019-03-01T20:02:49.045Z,4.95
2019-03-01T20:04:52.525Z,4.85
2019-03-01T20:06:54.492Z,5.30
2019-03-01T20:08:56.237Z,5.42
2019-03-01T20:10:57.928Z,5.58
2019-03-01T20:12:59.949Z,5.83
2019-03-01T20:15:01.731Z,5.35
2019-03-01T20:17:03.740Z,5.22
2019-03-01T20:19:05.465Z,6.22
2019-03-01T20:21:09.335Z,4.67
2019-03-01T20:23:10.970Z,5.28
2019-03-01T20:25:15.998Z,6.00
2019-03-01T20:27:17.041Z,5.25
2019-03-01T20:29:18.825Z,5.22
2019-03-01T20:31:20.564Z,5.58
2019-03-01T20:33:23.463Z,5.03
2019-03-01T20:35:26.246Z,4.50
2019-03-01T20:37:28.653Z,4.03
2019-03-01T20:39:30.591Z,4.83
2019-03-01T20:41:32.290Z,4.45
2019-03-01T20:43:37.954Z,4.87
2019-03-01T20:45:38.705Z,4.65
2019-03-01T20:47:40.457Z,3.92
2019-03-01T20:49:42.437Z,6.65
2019-03-01T20:51:44.258Z,5.00
2019-03-01T20:53:49.445Z,5.17
2019-03-01T20:55:51.026Z,5.00
2019-03-01T20:57:52.987Z,4.78
2019-03-01T20:59:54.726Z,5.40
2019-03-01T21:01:56.429Z,4.95
2019-03-01T21:03:58.122Z,6.15
2019-03-01T21:06:01.628Z,4.62
2019-03-01T21:08:03.470Z,5.10
2019-03-01T21:10:16.055Z,4.55
2019-03-01T21:12:17.738Z,5.22
2019-03-01T21:14:19.446Z,6.03
2019-03-01T21:16:21.241Z,4.60
2019-03-01T21:18:22.969Z,4.92
2019-03-01T21:20:24.805Z,5.12
2019-03-01T21:22:26.653Z,5.17
2019-03-01T21:24:28.381Z,3.95
2019-03-01T21:26:30.061Z,3.75
2019-03-01T21:28:33.680Z,4.12
2019-03-01T21:30:35.509Z,4.85
2019-03-01T21:32:37.211Z,3.87
2019-03-01T21:34:39.582Z,4.25
2019-03-01T21:36:41.433Z,7.03
2019-03-01T21:38:45.594Z,4.72
2019-03-01T21:40:47.023Z,5.25
2019-03-01T21:42:52.748Z,5.17
2019-03-01T21:44:52.942Z,4.33
2019-03-01T21:46:54.736Z,5.20
2019-03-01T21:48:56.854Z,4.30
2019-03-01T21:51:00.073Z,5.00
2019-03-01T21:53:05.388Z,5.90
2019-03-01T21:55:07.041Z,4.75
2019-03-01T21:57:08.768Z,4.67
2019-03-01T21:59:13.657Z,5.72
2019-03-01T22:01:14.057Z,5.40
2019-03-01T22:03:15.785Z,5.15
2019-03-01T22:05:17.692Z,5.22
2019-03-01T22:07:19.376Z,4.50
2019-03-01T22:09:24.319Z,4.90
2019-03-01T22:11:24.786Z,5.75
2019-03-01T22:13:26.483Z,4.65
2019-03-01T22:15:28.584Z,6.25
2019-03-01T22:17:30.293Z,4.60
2019-03-01T22:19:33.643Z,5.47
2019-03-01T22:21:35.553Z,7.65
2019-03-01T22:23:37.848Z,5.30
2019-03-01T22:25:39.552Z,5.20
2019-03-01T22:27:41.411Z,4.95
2019-03-01T22:29:47.268Z,4.75
2019-03-01T22:31:47.376Z,4.45
2019-03-01T22:33:49.100Z,5.20
2019-03-01T22:35:51.009Z,6.28
2019-03-01T22:37:52.728Z,5.20
2019-03-01T22:39:54.512Z,7.20
2019-03-01T22:41:56.248Z,9.93
2019-03-01T22:43:58.360Z,6.28
2019-03-01T22:46:01.661Z,4.30
2019-03-01T22:48:03.881Z,4.45
2019-03-01T22:50:07.043Z,3.75
2019-03-01T22:52:09.745Z,3.42
2019-03-01T22:54:11.476Z,3.20
2019-03-01T22:56:15.084Z,3.95
2019-03-01T22:58:16.813Z,3.90
2019-03-01T23:01:10.204Z,5.67
2019-03-01T23:03:11.917Z,3.83
2019-03-01T23:05:13.604Z,3.95
2019-03-01T23:07:15.320Z,5.90
2019-03-01T23:09:17.604Z,4.25
2019-03-01T23:11:19.316Z,4.28
2019-03-01T23:13:21.866Z,3.27
2019-03-01T23:15:23.772Z,3.90
2019-03-01T23:17:27.560Z,3.27
2019-03-01T23:19:29.493Z,4.35
2019-03-01T23:21:32.594Z,3.83
2019-03-01T23:23:34.787Z,3.90
2019-03-01T23:25:36.630Z,3.62
2019-03-01T23:27:38.329Z,3.25
2019-03-01T23:29:40.027Z,3.72
2019-03-01T23:31:42.162Z,4.05
2019-03-01T23:33:44.281Z,4.35
2019-03-01T23:35:46.085Z,3.47
2019-03-01T23:37:48.256Z,2.98
2019-03-01T23:39:49.962Z,3.90
2019-03-01T23:41:52.655Z,3.35
2019-03-01T23:43:54.478Z,3.87
2019-03-01T23:45:56.177Z,3.65
2019-03-01T23:47:57.933Z,2.92
2019-03-01T23:50:00.492Z,29.40
2019-03-01T23:52:02.526Z,4.55
2019-03-01T23:54:05.698Z,5.20
2019-03-01T23:56:07.825Z,4.10
2019-03-01T23:58:12.531Z,3.30
